sensor_id;sensor_type;location;lat;lon;timestamp;pressure;altitude;pressure_sealevel;temperature;humidity
77583;BME280;66726;52.388;9.986;2023-11-22T00:00:18;101986.81;;;4.06;82.00
77583;BME280;66726;52.388;9.986;2023-11-22T00:02:48;101993.41;;;3.99;81.50
77583;BME280;66726;52.388;9.986;2023-11-22T00:05:16;101998.78;;;3.97;82.41
77583;BME280;66726;52.388;9.986;2023-11-22T00:07:46;101998.72;;;3.99;83.25
77583;BME280;66726;52.388;9.986;2023-11-22T00:10:14;102007.09;;;3.91;81.73
77583;BME280;66726;52.388;9.986;2023-11-22T00:12:42;102014.53;;;3.85;81.66
77583;BME280;66726;52.388;9.986;2023-11-22T00:15:11;102014.63;;;3.83;83.07
77583;BME280;66726;52.388;9.986;2023-11-22T00:17:39;102019.31;;;3.78;82.62
77583;BME280;66726;52.388;9.986;2023-11-22T00:20:09;102022.31;;;3.88;84.43
77583;BME280;66726;52.388;9.986;2023-11-22T00:22:37;102020.75;;;3.84;82.87
77583;BME280;66726;52.388;9.986;2023-11-22T00:25:08;102024.56;;;3.80;83.32
77583;BME280;66726;52.388;9.986;2023-11-22T00:27:40;102012.91;;;3.67;84.21
77583;BME280;66726;52.388;9.986;2023-11-22T00:30:10;102013.69;;;3.69;84.28
77583;BME280;66726;52.388;9.986;2023-11-22T00:32:38;102008.56;;;3.66;83.73
77583;BME280;66726;52.388;9.986;2023-11-22T00:35:08;102014.63;;;3.68;84.30
77583;BME280;66726;52.388;9.986;2023-11-22T00:37:36;102023.50;;;3.67;84.53
77583;BME280;66726;52.388;9.986;2023-11-22T00:40:08;102023.16;;;3.57;83.29
77583;BME280;66726;52.388;9.986;2023-11-22T00:42:39;102017.34;;;3.50;84.16
77583;BME280;66726;52.388;9.986;2023-11-22T00:45:10;102025.00;;;3.39;85.10
77583;BME280;66726;52.388;9.986;2023-11-22T00:47:39;102026.31;;;3.48;85.06
77583;BME280;66726;52.388;9.986;2023-11-22T00:50:08;102027.53;;;3.42;84.07
77583;BME280;66726;52.388;9.986;2023-11-22T00:52:36;102025.69;;;3.43;84.90
77583;BME280;66726;52.388;9.986;2023-11-22T00:55:07;102023.91;;;3.43;85.37
77583;BME280;66726;52.388;9.986;2023-11-22T00:57:36;102022.81;;;3.47;85.42
77583;BME280;66726;52.388;9.986;2023-11-22T01:00:06;102026.56;;;3.43;85.23
77583;BME280;66726;52.388;9.986;2023-11-22T01:02:36;102031.84;;;3.43;85.49
77583;BME280;66726;52.388;9.986;2023-11-22T01:05:06;102029.72;;;3.34;85.43
77583;BME280;66726;52.388;9.986;2023-11-22T01:07:38;102034.16;;;3.34;85.67
77583;BME280;66726;52.388;9.986;2023-11-22T01:10:09;102046.34;;;3.36;85.58
77583;BME280;66726;52.388;9.986;2023-11-22T01:12:38;102049.28;;;3.32;84.54
77583;BME280;66726;52.388;9.986;2023-11-22T01:15:08;102049.97;;;3.35;86.03
77583;BME280;66726;52.388;9.986;2023-11-22T01:17:36;102056.94;;;3.36;86.24
77583;BME280;66726;52.388;9.986;2023-11-22T01:20:06;102063.44;;;3.31;85.52
77583;BME280;66726;52.388;9.986;2023-11-22T01:22:37;102074.19;;;3.28;85.42
77583;BME280;66726;52.388;9.986;2023-11-22T01:25:08;102083.91;;;3.27;85.69
77583;BME280;66726;52.388;9.986;2023-11-22T01:27:36;102084.53;;;3.15;84.54
77583;BME280;66726;52.388;9.986;2023-11-22T01:30:06;102080.53;;;3.08;85.58
77583;BME280;66726;52.388;9.986;2023-11-22T01:32:34;102083.94;;;3.10;86.22
77583;BME280;66726;52.388;9.986;2023-11-22T01:35:04;102087.22;;;2.98;85.30
77583;BME280;66726;52.388;9.986;2023-11-22T01:37:32;102086.59;;;2.93;85.36
77583;BME280;66726;52.388;9.986;2023-11-22T01:40:00;102093.69;;;2.92;86.67
77583;BME280;66726;52.388;9.986;2023-11-22T01:42:31;102088.94;;;2.82;85.97
77583;BME280;66726;52.388;9.986;2023-11-22T01:44:59;102087.38;;;2.78;87.50
77583;BME280;66726;52.388;9.986;2023-11-22T01:47:27;102086.75;;;2.73;86.61
77583;BME280;66726;52.388;9.986;2023-11-22T01:49:57;102084.88;;;2.75;86.84
77583;BME280;66726;52.388;9.986;2023-11-22T01:52:25;102088.50;;;2.74;87.00
77583;BME280;66726;52.388;9.986;2023-11-22T01:54:54;102077.91;;;2.74;86.73
77583;BME280;66726;52.388;9.986;2023-11-22T01:57:23;102083.47;;;2.68;86.39
77583;BME280;66726;52.388;9.986;2023-11-22T01:59:53;102085.19;;;2.69;87.06
77583;BME280;66726;52.388;9.986;2023-11-22T02:02:21;102081.00;;;2.82;87.58
77583;BME280;66726;52.388;9.986;2023-11-22T02:04:50;102081.31;;;2.76;86.55
77583;BME280;66726;52.388;9.986;2023-11-22T02:07:18;102079.31;;;2.81;87.21
77583;BME280;66726;52.388;9.986;2023-11-22T02:09:46;102088.94;;;2.82;87.03
77583;BME280;66726;52.388;9.986;2023-11-22T02:12:14;102087.47;;;2.76;85.61
77583;BME280;66726;52.388;9.986;2023-11-22T02:14:42;102088.50;;;2.74;85.89
77583;BME280;66726;52.388;9.986;2023-11-22T02:17:12;102093.91;;;2.71;85.16
77583;BME280;66726;52.388;9.986;2023-11-22T02:19:40;102092.53;;;2.64;86.72
77583;BME280;66726;52.388;9.986;2023-11-22T02:22:09;102098.75;;;2.63;86.51
77583;BME280;66726;52.388;9.986;2023-11-22T02:24:39;102095.69;;;2.53;87.80
77583;BME280;66726;52.388;9.986;2023-11-22T02:27:07;102096.13;;;2.44;86.85
77583;BME280;66726;52.388;9.986;2023-11-22T02:29:35;102097.59;;;2.32;88.42
77583;BME280;66726;52.388;9.986;2023-11-22T02:32:04;102097.66;;;2.49;88.27
77583;BME280;66726;52.388;9.986;2023-11-22T02:34:33;102098.25;;;2.54;87.56
77583;BME280;66726;52.388;9.986;2023-11-22T02:37:03;102098.06;;;2.40;86.01
77583;BME280;66726;52.388;9.986;2023-11-22T02:39:45;102092.03;;;2.38;87.20
77583;BME280;66726;52.388;9.986;2023-11-22T02:42:16;102088.47;;;2.39;88.99
77583;BME280;66726;52.388;9.986;2023-11-22T02:44:44;102093.09;;;2.34;88.81
77583;BME280;66726;52.388;9.986;2023-11-22T02:47:12;102098.06;;;2.40;88.41
77583;BME280;66726;52.388;9.986;2023-11-22T02:49:41;102101.72;;;2.38;88.30
77583;BME280;66726;52.388;9.986;2023-11-22T02:52:09;102103.31;;;2.42;88.61
77583;BME280;66726;52.388;9.986;2023-11-22T02:54:43;102104.31;;;2.39;88.95
77583;BME280;66726;52.388;9.986;2023-11-22T02:57:12;102106.16;;;2.37;88.31
77583;BME280;66726;52.388;9.986;2023-11-22T02:59:41;102117.66;;;2.36;89.58
77583;BME280;66726;52.388;9.986;2023-11-22T03:02:10;102132.44;;;2.40;89.13
77583;BME280;66726;52.388;9.986;2023-11-22T03:04:38;102122.38;;;2.30;88.47
77583;BME280;66726;52.388;9.986;2023-11-22T03:07:06;102128.25;;;2.18;89.72
77583;BME280;66726;52.388;9.986;2023-11-22T03:09:34;102131.25;;;2.10;90.24
77583;BME280;66726;52.388;9.986;2023-11-22T03:12:05;102136.50;;;2.12;90.99
77583;BME280;66726;52.388;9.986;2023-11-22T03:14:35;102158.13;;;2.01;90.20
77583;BME280;66726;52.388;9.986;2023-11-22T03:17:04;102150.19;;;2.01;90.30
77583;BME280;66726;52.388;9.986;2023-11-22T03:19:32;102153.75;;;2.00;90.30
77583;BME280;66726;52.388;9.986;2023-11-22T03:22:00;102162.75;;;1.96;90.41
77583;BME280;66726;52.388;9.986;2023-11-22T03:24:30;102157.31;;;1.99;90.81
77583;BME280;66726;52.388;9.986;2023-11-22T03:26:59;102162.34;;;2.05;90.76
77583;BME280;66726;52.388;9.986;2023-11-22T03:29:29;102166.63;;;2.08;91.09
77583;BME280;66726;52.388;9.986;2023-11-22T03:31:58;102163.78;;;2.12;90.68
77583;BME280;66726;52.388;9.986;2023-11-22T03:34:26;102166.66;;;2.06;89.72
77583;BME280;66726;52.388;9.986;2023-11-22T03:36:54;102162.47;;;2.02;91.12
77583;BME280;66726;52.388;9.986;2023-11-22T03:39:22;102167.53;;;2.07;91.33
77583;BME280;66726;52.388;9.986;2023-11-22T03:41:52;102169.16;;;2.09;90.12
77583;BME280;66726;52.388;9.986;2023-11-22T03:44:20;102177.22;;;2.06;89.85
77583;BME280;66726;52.388;9.986;2023-11-22T03:46:50;102167.47;;;2.08;90.21
77583;BME280;66726;52.388;9.986;2023-11-22T03:49:19;102169.88;;;2.13;89.86
77583;BME280;66726;52.388;9.986;2023-11-22T03:51:47;102176.03;;;2.13;89.68
77583;BME280;66726;52.388;9.986;2023-11-22T03:54:15;102187.59;;;2.11;90.01
77583;BME280;66726;52.388;9.986;2023-11-22T03:56:44;102183.31;;;2.08;89.85
77583;BME280;66726;52.388;9.986;2023-11-22T03:59:12;102189.38;;;2.10;88.97
77583;BME280;66726;52.388;9.986;2023-11-22T04:01:40;102184.75;;;2.15;89.78
77583;BME280;66726;52.388;9.986;2023-11-22T04:04:09;102180.59;;;2.10;89.46
77583;BME280;66726;52.388;9.986;2023-11-22T04:06:38;102188.16;;;2.17;89.26
77583;BME280;66726;52.388;9.986;2023-11-22T04:09:07;102192.09;;;2.09;88.17
77583;BME280;66726;52.388;9.986;2023-11-22T04:11:39;102193.03;;;2.08;89.07
77583;BME280;66726;52.388;9.986;2023-11-22T04:14:07;102200.59;;;2.15;90.33
77583;BME280;66726;52.388;9.986;2023-11-22T04:16:35;102204.03;;;1.98;88.46
77583;BME280;66726;52.388;9.986;2023-11-22T04:19:04;102201.00;;;2.06;89.53
77583;BME280;66726;52.388;9.986;2023-11-22T04:21:34;102202.88;;;2.04;89.34
77583;BME280;66726;52.388;9.986;2023-11-22T04:24:02;102206.59;;;2.00;88.86
77583;BME280;66726;52.388;9.986;2023-11-22T04:26:30;102210.94;;;2.01;88.80
77583;BME280;66726;52.388;9.986;2023-11-22T04:28:58;102220.84;;;1.96;89.25
77583;BME280;66726;52.388;9.986;2023-11-22T04:31:27;102226.41;;;1.90;89.25
77583;BME280;66726;52.388;9.986;2023-11-22T04:33:55;102222.13;;;1.87;89.45
77583;BME280;66726;52.388;9.986;2023-11-22T04:36:24;102224.44;;;1.95;88.94
77583;BME280;66726;52.388;9.986;2023-11-22T04:38:54;102233.00;;;2.00;88.81
77583;BME280;66726;52.388;9.986;2023-11-22T04:41:22;102224.16;;;2.01;88.00
77583;BME280;66726;52.388;9.986;2023-11-22T04:43:52;102231.41;;;1.96;87.99
77583;BME280;66726;52.388;9.986;2023-11-22T04:46:20;102233.91;;;1.99;88.39
77583;BME280;66726;52.388;9.986;2023-11-22T04:48:49;102233.63;;;1.86;88.50
77583;BME280;66726;52.388;9.986;2023-11-22T04:51:18;102227.59;;;1.83;88.46
77583;BME280;66726;52.388;9.986;2023-11-22T04:53:46;102225.31;;;1.75;88.59
77583;BME280;66726;52.388;9.986;2023-11-22T04:56:15;102236.44;;;1.82;89.68
77583;BME280;66726;52.388;9.986;2023-11-22T04:58:44;102243.97;;;1.91;89.32
77583;BME280;66726;52.388;9.986;2023-11-22T05:01:12;102235.13;;;1.92;88.34
77583;BME280;66726;52.388;9.986;2023-11-22T05:03:44;102237.13;;;1.87;88.29
77583;BME280;66726;52.388;9.986;2023-11-22T05:06:12;102238.75;;;1.89;88.40
77583;BME280;66726;52.388;9.986;2023-11-22T05:08:40;102222.72;;;1.94;88.40
77583;BME280;66726;52.388;9.986;2023-11-22T05:11:09;102222.72;;;1.94;88.42
77583;BME280;66726;52.388;9.986;2023-11-22T05:13:38;102228.00;;;1.94;88.76
77583;BME280;66726;52.388;9.986;2023-11-22T05:16:07;102223.00;;;1.88;87.50
77583;BME280;66726;52.388;9.986;2023-11-22T05:18:36;102229.09;;;1.88;88.08
77583;BME280;66726;52.388;9.986;2023-11-22T05:21:04;102228.63;;;1.80;87.50
77583;BME280;66726;52.388;9.986;2023-11-22T05:23:33;102229.13;;;1.68;88.18
77583;BME280;66726;52.388;9.986;2023-11-22T05:26:01;102229.09;;;1.70;88.80
77583;BME280;66726;52.388;9.986;2023-11-22T05:28:31;102232.19;;;1.59;88.34
77583;BME280;66726;52.388;9.986;2023-11-22T05:31:01;102236.28;;;1.66;89.36
77583;BME280;66726;52.388;9.986;2023-11-22T05:33:29;102243.34;;;1.66;88.36
77583;BME280;66726;52.388;9.986;2023-11-22T05:35:59;102251.59;;;1.58;88.39
77583;BME280;66726;52.388;9.986;2023-11-22T05:38:27;102243.81;;;1.55;88.21
77583;BME280;66726;52.388;9.986;2023-11-22T05:40:55;102237.78;;;1.51;89.10
77583;BME280;66726;52.388;9.986;2023-11-22T05:43:23;102235.56;;;1.42;88.93
77583;BME280;66726;52.388;9.986;2023-11-22T05:45:54;102229.38;;;1.43;89.69
77583;BME280;66726;52.388;9.986;2023-11-22T05:48:23;102232.94;;;1.42;89.42
77583;BME280;66726;52.388;9.986;2023-11-22T05:50:51;102235.16;;;1.51;90.25
77583;BME280;66726;52.388;9.986;2023-11-22T05:53:19;102242.16;;;1.52;89.90
77583;BME280;66726;52.388;9.986;2023-11-22T05:55:48;102241.38;;;1.50;89.20
77583;BME280;66726;52.388;9.986;2023-11-22T05:58:17;102259.22;;;1.44;90.13
77583;BME280;66726;52.388;9.986;2023-11-22T06:00:46;102259.38;;;1.41;89.23
77583;BME280;66726;52.388;9.986;2023-11-22T06:03:14;102273.50;;;1.40;89.07
77583;BME280;66726;52.388;9.986;2023-11-22T06:05:44;102287.28;;;1.46;89.38
77583;BME280;66726;52.388;9.986;2023-11-22T06:08:12;102295.47;;;1.40;89.40
77583;BME280;66726;52.388;9.986;2023-11-22T06:10:40;102298.75;;;1.45;89.70
77583;BME280;66726;52.388;9.986;2023-11-22T06:13:09;102300.63;;;1.43;89.84
77583;BME280;66726;52.388;9.986;2023-11-22T06:15:39;102304.03;;;1.45;90.02
77583;BME280;66726;52.388;9.986;2023-11-22T06:18:07;102304.19;;;1.42;89.65
77583;BME280;66726;52.388;9.986;2023-11-22T06:20:36;102298.75;;;1.45;89.33
77583;BME280;66726;52.388;9.986;2023-11-22T06:23:06;102302.44;;;1.41;89.78
77583;BME280;66726;52.388;9.986;2023-11-22T06:25:35;102291.03;;;1.41;88.99
77583;BME280;66726;52.388;9.986;2023-11-22T06:28:04;102294.94;;;1.32;88.88
77583;BME280;66726;52.388;9.986;2023-11-22T06:30:32;102305.22;;;1.38;89.16
77583;BME280;66726;52.388;9.986;2023-11-22T06:33:00;102307.06;;;1.36;89.37
77583;BME280;66726;52.388;9.986;2023-11-22T06:35:28;102303.75;;;1.31;89.64
77583;BME280;66726;52.388;9.986;2023-11-22T06:37:56;102304.78;;;1.27;90.09
77583;BME280;66726;52.388;9.986;2023-11-22T06:40:26;102303.31;;;1.20;90.01
77583;BME280;66726;52.388;9.986;2023-11-22T06:42:56;102295.38;;;1.22;89.52
77583;BME280;66726;52.388;9.986;2023-11-22T06:45:24;102290.81;;;1.25;89.98
77583;BME280;66726;52.388;9.986;2023-11-22T06:47:52;102285.69;;;1.22;90.18
77583;BME280;66726;52.388;9.986;2023-11-22T06:50:24;102288.00;;;1.30;90.38
77583;BME280;66726;52.388;9.986;2023-11-22T06:52:52;102291.03;;;1.41;90.66
77583;BME280;66726;52.388;9.986;2023-11-22T06:55:20;102281.28;;;1.43;90.07
77583;BME280;66726;52.388;9.986;2023-11-22T06:57:50;102278.84;;;1.38;89.29
77583;BME280;66726;52.388;9.986;2023-11-22T07:00:18;102279.88;;;1.34;89.78
77583;BME280;66726;52.388;9.986;2023-11-22T07:02:47;102278.06;;;1.36;89.77
77583;BME280;66726;52.388;9.986;2023-11-22T07:05:15;102286.63;;;1.41;89.76
77583;BME280;66726;52.388;9.986;2023-11-22T07:07:44;102280.47;;;1.41;89.78
77583;BME280;66726;52.388;9.986;2023-11-22T07:10:13;102287.00;;;1.32;88.72
77583;BME280;66726;52.388;9.986;2023-11-22T07:12:41;102278.91;;;1.37;89.72
77583;BME280;66726;52.388;9.986;2023-11-22T07:15:11;102287.06;;;1.31;89.53
77583;BME280;66726;52.388;9.986;2023-11-22T07:17:40;102286.94;;;1.34;89.91
77583;BME280;66726;52.388;9.986;2023-11-22T07:20:09;102275.47;;;1.35;89.88
77583;BME280;66726;52.388;9.986;2023-11-22T07:22:43;102273.66;;;1.15;89.94
77583;BME280;66726;52.388;9.986;2023-11-22T07:25:11;102270.72;;;1.23;90.04
77583;BME280;66726;52.388;9.986;2023-11-22T07:27:45;102270.19;;;1.13;90.67
77583;BME280;66726;52.388;9.986;2023-11-22T07:30:16;102284.03;;;1.20;90.70
77583;BME280;66726;52.388;9.986;2023-11-22T07:32:46;102272.41;;;1.24;90.30
77583;BME280;66726;52.388;9.986;2023-11-22T07:35:15;102268.94;;;1.23;90.05
77583;BME280;66726;52.388;9.986;2023-11-22T07:37:43;102261.81;;;1.25;90.31
77583;BME280;66726;52.388;9.986;2023-11-22T07:40:12;102267.00;;;1.27;90.24
77583;BME280;66726;52.388;9.986;2023-11-22T07:42:41;102265.22;;;1.27;90.74
77583;BME280;66726;52.388;9.986;2023-11-22T07:45:10;102271.44;;;1.26;90.30
77583;BME280;66726;52.388;9.986;2023-11-22T07:47:41;102274.31;;;1.20;90.02
77583;BME280;66726;52.388;9.986;2023-11-22T07:50:10;102279.97;;;1.11;90.38
77583;BME280;66726;52.388;9.986;2023-11-22T07:52:39;102294.69;;;1.17;90.64
77583;BME280;66726;52.388;9.986;2023-11-22T07:55:09;102300.78;;;1.19;90.08
77583;BME280;66726;52.388;9.986;2023-11-22T07:57:37;102312.84;;;1.24;91.25
77583;BME280;66726;52.388;9.986;2023-11-22T08:00:07;102303.09;;;1.26;90.58
77583;BME280;66726;52.388;9.986;2023-11-22T08:02:36;102305.06;;;1.21;90.40
77583;BME280;66726;52.388;9.986;2023-11-22T08:05:07;102311.84;;;1.27;90.87
77583;BME280;66726;52.388;9.986;2023-11-22T08:07:36;102310.16;;;1.26;90.43
77583;BME280;66726;52.388;9.986;2023-11-22T08:10:08;102303.88;;;1.28;90.74
77583;BME280;66726;52.388;9.986;2023-11-22T08:12:44;102314.63;;;1.24;90.60
77583;BME280;66726;52.388;9.986;2023-11-22T08:15:14;102308.50;;;1.23;91.24
77583;BME280;66726;52.388;9.986;2023-11-22T08:17:42;102311.94;;;1.25;90.65
77583;BME280;66726;52.388;9.986;2023-11-22T08:20:12;102309.09;;;1.30;90.87
77583;BME280;66726;52.388;9.986;2023-11-22T08:22:46;102323.09;;;1.32;90.63
77583;BME280;66726;52.388;9.986;2023-11-22T08:25:16;102343.31;;;1.31;90.82
77583;BME280;66726;52.388;9.986;2023-11-22T08:27:45;102346.88;;;1.30;90.55
77583;BME280;66726;52.388;9.986;2023-11-22T08:30:13;102346.28;;;1.24;90.08
77583;BME280;66726;52.388;9.986;2023-11-22T08:32:44;102354.50;;;1.16;90.61
77583;BME280;66726;52.388;9.986;2023-11-22T08:35:16;102361.38;;;1.20;90.33
77583;BME280;66726;52.388;9.986;2023-11-22T08:37:44;102368.31;;;1.23;91.08
77583;BME280;66726;52.388;9.986;2023-11-22T08:40:14;102363.97;;;1.22;90.08
77583;BME280;66726;52.388;9.986;2023-11-22T08:42:42;102377.09;;;1.23;90.27
77583;BME280;66726;52.388;9.986;2023-11-22T08:45:10;102375.16;;;1.27;90.36
77583;BME280;66726;52.388;9.986;2023-11-22T08:47:40;102361.97;;;1.27;90.38
77583;BME280;66726;52.388;9.986;2023-11-22T08:50:09;102360.53;;;1.20;89.69
77583;BME280;66726;52.388;9.986;2023-11-22T08:52:40;102344.06;;;1.13;89.86
77583;BME280;66726;52.388;9.986;2023-11-22T08:55:09;102346.41;;;1.21;90.77
77583;BME280;66726;52.388;9.986;2023-11-22T08:57:38;102365.59;;;1.24;90.92
77583;BME280;66726;52.388;9.986;2023-11-22T09:00:08;102368.31;;;1.23;91.28
77583;BME280;66726;52.388;9.986;2023-11-22T09:02:38;102364.09;;;1.19;91.31
77583;BME280;66726;52.388;9.986;2023-11-22T09:05:08;102361.50;;;1.17;90.58
77583;BME280;66726;52.388;9.986;2023-11-22T09:07:36;102354.19;;;1.24;90.39
77583;BME280;66726;52.388;9.986;2023-11-22T09:10:07;102369.84;;;1.28;90.47
77583;BME280;66726;52.388;9.986;2023-11-22T09:12:39;102379.47;;;1.29;89.56
77583;BME280;66726;52.388;9.986;2023-11-22T09:15:09;102380.16;;;1.34;90.24
77583;BME280;66726;52.388;9.986;2023-11-22T09:17:41;102374.09;;;1.32;90.73
77583;BME280;66726;52.388;9.986;2023-11-22T09:20:11;102381.13;;;1.32;90.69
77583;BME280;66726;52.388;9.986;2023-11-22T09:22:44;102368.72;;;1.34;89.91
77583;BME280;66726;52.388;9.986;2023-11-22T09:25:16;102373.78;;;1.40;90.22
77583;BME280;66726;52.388;9.986;2023-11-22T09:27:47;102362.22;;;1.42;90.13
77583;BME280;66726;52.388;9.986;2023-11-22T09:30:19;102372.66;;;1.45;89.81
77583;BME280;66726;52.388;9.986;2023-11-22T09:33:00;102377.75;;;1.50;89.61
77583;BME280;66726;52.388;9.986;2023-11-22T09:35:28;102380.44;;;1.48;88.81
77583;BME280;66726;52.388;9.986;2023-11-22T09:37:58;102372.41;;;1.51;88.58
77583;BME280;66726;52.388;9.986;2023-11-22T09:40:29;102370.56;;;1.53;88.62
77583;BME280;66726;52.388;9.986;2023-11-22T09:42:59;102368.72;;;1.56;88.75
77583;BME280;66726;52.388;9.986;2023-11-22T09:45:30;102349.34;;;1.57;87.92
77583;BME280;66726;52.388;9.986;2023-11-22T09:47:59;102334.41;;;1.56;88.05
77583;BME280;66726;52.388;9.986;2023-11-22T09:50:40;102333.63;;;1.53;87.52
77583;BME280;66726;52.388;9.986;2023-11-22T09:53:14;102343.91;;;1.60;88.15
77583;BME280;66726;52.388;9.986;2023-11-22T09:55:49;102342.06;;;1.62;87.41
77583;BME280;66726;52.388;9.986;2023-11-22T09:58:19;102356.06;;;1.64;87.54
77583;BME280;66726;52.388;9.986;2023-11-22T10:00:50;102361.41;;;1.62;86.93
77583;BME280;66726;52.388;9.986;2023-11-22T10:03:19;102355.13;;;1.65;86.78
77583;BME280;66726;52.388;9.986;2023-11-22T10:05:48;102359.75;;;1.60;85.10
77583;BME280;66726;52.388;9.986;2023-11-22T10:08:16;102363.19;;;1.62;84.90
77583;BME280;66726;52.388;9.986;2023-11-22T10:10:45;102370.06;;;1.66;84.72
77583;BME280;66726;52.388;9.986;2023-11-22T10:13:19;102374.44;;;1.67;84.27
77583;BME280;66726;52.388;9.986;2023-11-22T10:15:47;102381.28;;;1.71;84.52
77583;BME280;66726;52.388;9.986;2023-11-22T10:18:16;102378.06;;;1.64;82.05
77583;BME280;66726;52.388;9.986;2023-11-22T10:20:46;102379.53;;;1.71;84.20
77583;BME280;66726;52.388;9.986;2023-11-22T10:23:17;102381.94;;;1.76;84.40
77583;BME280;66726;52.388;9.986;2023-11-22T10:25:48;102385.13;;;1.64;80.47
77583;BME280;66726;52.388;9.986;2023-11-22T10:28:21;102385.41;;;1.56;78.74
77583;BME280;66726;52.388;9.986;2023-11-22T10:30:51;102398.50;;;1.59;80.59
77583;BME280;66726;52.388;9.986;2023-11-22T10:33:19;102397.31;;;1.66;80.62
77583;BME280;66726;52.388;9.986;2023-11-22T10:35:51;102412.03;;;1.72;80.38
77583;BME280;66726;52.388;9.986;2023-11-22T10:38:21;102408.34;;;1.76;80.80
77583;BME280;66726;52.388;9.986;2023-11-22T10:40:49;102387.03;;;1.80;81.65
77583;BME280;66726;52.388;9.986;2023-11-22T10:43:22;102392.25;;;1.82;80.37
77583;BME280;66726;52.388;9.986;2023-11-22T10:45:55;102369.78;;;1.72;79.47
77583;BME280;66726;52.388;9.986;2023-11-22T10:48:23;102360.31;;;1.68;78.79
77583;BME280;66726;52.388;9.986;2023-11-22T10:50:53;102364.38;;;1.75;80.25
77583;BME280;66726;52.388;9.986;2023-11-22T10:53:32;102368.75;;;1.76;80.21
77583;BME280;66726;52.388;9.986;2023-11-22T10:56:07;102370.75;;;1.71;78.91
77583;BME280;66726;52.388;9.986;2023-11-22T10:58:47;102374.03;;;1.76;79.84
77583;BME280;66726;52.388;9.986;2023-11-22T11:01:16;102361.41;;;1.82;80.28
77583;BME280;66726;52.388;9.986;2023-11-22T11:03:56;102351.59;;;1.86;79.85
77583;BME280;66726;52.388;9.986;2023-11-22T11:06:32;102354.91;;;1.91;80.16
77583;BME280;66726;52.388;9.986;2023-11-22T11:09:04;102344.25;;;1.92;80.21
77583;BME280;66726;52.388;9.986;2023-11-22T11:11:35;102334.75;;;1.88;79.54
77583;BME280;66726;52.388;9.986;2023-11-22T11:14:08;102338.91;;;1.94;80.37
77583;BME280;66726;52.388;9.986;2023-11-22T11:16:39;102322.34;;;1.90;79.97
77583;BME280;66726;52.388;9.986;2023-11-22T11:19:09;102328.09;;;2.00;81.14
77583;BME280;66726;52.388;9.986;2023-11-22T11:21:39;102324.38;;;2.04;80.82
77583;BME280;66726;52.388;9.986;2023-11-22T11:24:07;102326.69;;;2.12;80.33
77583;BME280;66726;52.388;9.986;2023-11-22T11:26:35;102317.78;;;2.14;80.52
77583;BME280;66726;52.388;9.986;2023-11-22T11:29:05;102317.00;;;2.12;78.91
77583;BME280;66726;52.388;9.986;2023-11-22T11:31:39;102316.84;;;2.15;78.37
77583;BME280;66726;52.388;9.986;2023-11-22T11:34:08;102305.28;;;2.18;78.47
77583;BME280;66726;52.388;9.986;2023-11-22T11:36:38;102308.66;;;2.21;78.07
77583;BME280;66726;52.388;9.986;2023-11-22T11:39:08;102294.28;;;2.27;77.12
77583;BME280;66726;52.388;9.986;2023-11-22T11:41:42;102273.72;;;2.33;77.95
77583;BME280;66726;52.388;9.986;2023-11-22T11:44:11;102279.59;;;2.40;79.05
77583;BME280;66726;52.388;9.986;2023-11-22T11:46:40;102271.44;;;2.44;78.45
77583;BME280;66726;52.388;9.986;2023-11-22T11:49:12;102260.59;;;2.50;79.29
77583;BME280;66726;52.388;9.986;2023-11-22T11:51:41;102263.06;;;2.53;78.22
77583;BME280;66726;52.388;9.986;2023-11-22T11:54:12;102266.72;;;2.51;75.78
77583;BME280;66726;52.388;9.986;2023-11-22T11:56:44;102252.25;;;2.60;76.91
77583;BME280;66726;52.388;9.986;2023-11-22T11:59:14;102238.88;;;2.63;75.97
77583;BME280;66726;52.388;9.986;2023-11-22T12:01:42;102227.94;;;2.70;75.76
77583;BME280;66726;52.388;9.986;2023-11-22T12:04:12;102226.28;;;2.68;72.70
77583;BME280;66726;52.388;9.986;2023-11-22T12:06:40;102205.63;;;2.76;73.83
77583;BME280;66726;52.388;9.986;2023-11-22T12:09:08;102195.81;;;2.78;73.06
77583;BME280;66726;52.388;9.986;2023-11-22T12:11:36;102196.44;;;2.83;74.13
77583;BME280;66726;52.388;9.986;2023-11-22T12:14:06;102205.84;;;2.88;75.00
77583;BME280;66726;52.388;9.986;2023-11-22T12:16:37;102183.38;;;2.80;71.57
77583;BME280;66726;52.388;9.986;2023-11-22T12:19:05;102181.13;;;2.89;71.66
77583;BME280;66726;52.388;9.986;2023-11-22T12:21:33;102167.53;;;2.97;72.66
77583;BME280;66726;52.388;9.986;2023-11-22T12:24:01;102162.06;;;3.00;72.47
77583;BME280;66726;52.388;9.986;2023-11-22T12:26:33;102163.81;;;3.01;71.42
77583;BME280;66726;52.388;9.986;2023-11-22T12:29:01;102159.13;;;3.06;71.29
77583;BME280;66726;52.388;9.986;2023-11-22T12:31:32;102155.88;;;3.01;70.17
77583;BME280;66726;52.388;9.986;2023-11-22T12:34:05;102147.84;;;3.02;71.32
77583;BME280;66726;52.388;9.986;2023-11-22T12:36:34;102134.69;;;3.01;72.49
77583;BME280;66726;52.388;9.986;2023-11-22T12:39:07;102127.84;;;2.97;71.55
77583;BME280;66726;52.388;9.986;2023-11-22T12:41:47;102124.34;;;2.96;71.79
77583;BME280;66726;52.388;9.986;2023-11-22T12:44:32;102145.41;;;2.98;72.30
77583;BME280;66726;52.388;9.986;2023-11-22T12:47:00;102164.56;;;2.86;70.42
77583;BME280;66726;52.388;9.986;2023-11-22T12:49:45;102190.53;;;2.95;71.36
77583;BME280;66726;52.388;9.986;2023-11-22T12:52:13;102220.44;;;2.97;71.84
77583;BME280;66726;52.388;9.986;2023-11-22T12:54:41;102206.34;;;2.96;71.81
77583;BME280;66726;52.388;9.986;2023-11-22T12:57:11;102178.25;;;2.94;70.71
77583;BME280;66726;52.388;9.986;2023-11-22T12:59:40;102159.03;;;2.90;71.32
77583;BME280;66726;52.388;9.986;2023-11-22T13:02:08;102149.44;;;2.88;71.34
77583;BME280;66726;52.388;9.986;2023-11-22T13:04:38;102160.19;;;2.85;72.77
77583;BME280;66726;52.388;9.986;2023-11-22T13:07:08;102143.63;;;2.81;72.67
77583;BME280;66726;52.388;9.986;2023-11-22T13:09:36;102141.06;;;2.80;71.97
77583;BME280;66726;52.388;9.986;2023-11-22T13:12:05;102127.28;;;2.73;71.94